Time;durP1;ratioP1;P1;durP2;ratioP2;P2;SDS_P1;SDS_P2;PMS_P1;PMS_P2;Temp;Humidity;BMP_temperature;BMP_pressure;BME280_temperature;BME280_humidity;BME280_pressure;Samples;Min_cycle;Max_cycle;Signal;HPM_P1;HPM_P2
2021/07/04 00:01:22;;;;;;;7.63;4.78;;;17.50;99.90;;;;;;5081169;28;20033;-60
2021/07/04 00:03:48;;;;;;;5.57;4.45;;;17.50;99.90;;;;;;5076344;28;20104;-60
2021/07/04 00:06:14;;;;;;;7.57;5.10;;;17.40;99.90;;;;;;5061924;28;20048;-59
2021/07/04 00:08:40;;;;;;;8.65;4.63;;;17.40;99.90;;;;;;5079037;28;20025;-60
2021/07/04 00:11:09;;;;;;;8.27;5.13;;;17.40;99.90;;;;;;5073634;28;20037;-60
2021/07/04 00:13:36;;;;;;;8.75;4.63;;;17.40;99.90;;;;;;5079725;28;20024;-60
2021/07/04 00:16:03;;;;;;;7.43;4.65;;;17.30;99.90;;;;;;5079780;28;20035;-60
2021/07/04 00:18:30;;;;;;;6.93;4.60;;;17.30;99.90;;;;;;5038146;28;20037;-59
2021/07/04 00:20:58;;;;;;;7.25;5.20;;;17.30;99.90;;;;;;5075314;28;20032;-60
2021/07/04 00:23:25;;;;;;;6.22;4.80;;;17.30;99.90;;;;;;5087347;28;20024;-60
2021/07/04 00:25:51;;;;;;;6.18;4.40;;;17.30;99.90;;;;;;5076034;28;20395;-60
2021/07/04 00:28:17;;;;;;;6.95;4.60;;;17.30;99.90;;;;;;5074057;28;20037;-60
2021/07/04 00:30:43;;;;;;;7.72;5.13;;;17.30;99.90;;;;;;5075543;28;20044;-60
2021/07/04 00:33:10;;;;;;;6.60;4.40;;;17.20;99.90;;;;;;5080489;28;20480;-60
2021/07/04 00:35:36;;;;;;;6.55;4.25;;;17.30;99.90;;;;;;5078145;28;20063;-60
2021/07/04 00:38:04;;;;;;;5.63;4.25;;;17.20;99.90;;;;;;5072691;28;20028;-59
2021/07/04 00:40:30;;;;;;;8.48;4.60;;;17.30;99.90;;;;;;5074459;28;20460;-60
2021/07/04 00:42:56;;;;;;;11.02;4.50;;;17.20;99.90;;;;;;5075092;28;20036;-60
2021/07/04 00:45:24;;;;;;;6.97;4.80;;;17.20;99.90;;;;;;5077071;28;20047;-60
2021/07/04 00:47:51;;;;;;;7.28;4.65;;;17.20;99.90;;;;;;5080694;28;20428;-60
2021/07/04 00:50:21;;;;;;;4.35;3.78;;;17.20;99.90;;;;;;5079130;28;20036;-60
2021/07/04 00:52:46;;;;;;;5.30;4.65;;;17.10;99.90;;;;;;5082365;28;20073;-60
2021/07/04 00:55:15;;;;;;;7.10;4.78;;;17.10;99.90;;;;;;5070252;28;20024;-59
2021/07/04 00:57:43;;;;;;;8.05;4.50;;;17.00;99.90;;;;;;5071498;28;20032;-59
2021/07/04 01:00:11;;;;;;;6.47;4.35;;;17.00;99.90;;;;;;5071845;28;20037;-60
2021/07/04 01:02:37;;;;;;;6.10;4.65;;;16.90;99.90;;;;;;5083408;28;20043;-59
2021/07/04 01:05:17;;;;;;;7.03;4.90;;;17.00;99.90;;;;;;5081217;28;20115;-60
2021/07/04 01:07:44;;;;;;;8.60;5.10;;;17.00;99.90;;;;;;5077011;28;20028;-61
2021/07/04 01:10:12;;;;;;;8.50;5.32;;;16.90;99.90;;;;;;5078420;28;20037;-60
2021/07/04 01:12:39;;;;;;;7.70;4.25;;;16.90;99.90;;;;;;5073203;28;20029;-60
2021/07/04 01:15:06;;;;;;;11.00;4.72;;;17.00;99.90;;;;;;5074210;28;20059;-60
2021/07/04 01:17:33;;;;;;;8.00;5.18;;;16.80;99.90;;;;;;5075887;28;20479;-60
2021/07/04 01:20:00;;;;;;;4.90;4.40;;;16.90;99.90;;;;;;5082083;28;20376;-60
2021/07/04 01:22:27;;;;;;;6.15;4.60;;;16.90;99.90;;;;;;5077770;28;20063;-60
2021/07/04 01:24:54;;;;;;;6.43;4.50;;;16.90;99.90;;;;;;5074616;28;20097;-59
2021/07/04 01:27:21;;;;;;;7.35;4.63;;;16.90;99.90;;;;;;5080040;28;20044;-63
2021/07/04 01:29:47;;;;;;;8.50;5.25;;;16.90;99.90;;;;;;5079731;28;20115;-59
2021/07/04 01:32:13;;;;;;;8.32;5.40;;;16.80;99.90;;;;;;5078620;28;20025;-60
2021/07/04 01:34:39;;;;;;;7.75;4.90;;;16.70;99.90;;;;;;5024015;28;20051;-60
2021/07/04 01:37:04;;;;;;;8.43;5.25;;;16.70;99.90;;;;;;5064243;28;20039;-60
2021/07/04 01:39:30;;;;;;;9.18;5.25;;;16.60;99.90;;;;;;5082574;28;20044;-60
2021/07/04 01:41:56;;;;;;;5.85;4.70;;;16.60;99.90;;;;;;5075263;28;20468;-60
2021/07/04 01:44:23;;;;;;;6.85;5.13;;;16.60;99.90;;;;;;5072513;28;20065;-60
2021/07/04 01:46:49;;;;;;;7.40;4.93;;;16.60;99.90;;;;;;5082423;28;20028;-60
2021/07/04 01:49:15;;;;;;;11.93;5.32;;;16.60;99.90;;;;;;5079434;28;20043;-61
2021/07/04 01:51:44;;;;;;;6.75;5.03;;;16.60;99.90;;;;;;5076829;28;20044;-59
2021/07/04 01:54:09;;;;;;;7.10;5.05;;;16.60;99.90;;;;;;5077633;28;20186;-60
2021/07/04 01:56:35;;;;;;;7.78;4.90;;;16.60;99.90;;;;;;5081801;28;20503;-61
2021/07/04 01:59:01;;;;;;;7.63;5.68;;;16.60;99.90;;;;;;5068286;28;20111;-59
2021/07/04 02:01:27;;;;;;;5.63;4.88;;;16.60;99.90;;;;;;5074554;28;20062;-60
2021/07/04 02:03:53;;;;;;;7.32;4.97;;;16.60;99.90;;;;;;5072757;28;20028;-60
2021/07/04 02:06:18;;;;;;;6.13;4.90;;;16.60;99.90;;;;;;5069618;28;20476;-60
2021/07/04 02:08:44;;;;;;;5.72;4.75;;;16.60;99.90;;;;;;5070384;28;20116;-60
2021/07/04 02:11:10;;;;;;;5.95;5.07;;;16.60;99.90;;;;;;5075320;28;20028;-59
2021/07/04 02:13:36;;;;;;;7.07;4.80;;;16.50;99.90;;;;;;5080760;28;20028;-61
2021/07/04 02:16:02;;;;;;;9.70;5.00;;;16.40;99.90;;;;;;5072720;28;20514;-60
2021/07/04 02:18:28;;;;;;;6.03;5.20;;;16.40;99.90;;;;;;5085174;28;20028;-60
2021/07/04 02:20:54;;;;;;;6.65;4.80;;;16.40;99.90;;;;;;5071307;28;20124;-59
2021/07/04 02:23:32;;;;;;;5.35;4.72;;;16.30;99.90;;;;;;5075716;28;20472;-60
2021/07/04 02:25:58;;;;;;;5.85;5.25;;;16.30;99.90;;;;;;5076472;28;20424;-61
2021/07/04 02:28:26;;;;;;;6.40;5.47;;;16.30;99.90;;;;;;5080821;28;20033;-60
2021/07/04 02:30:54;;;;;;;9.60;5.25;;;16.20;99.90;;;;;;5076938;28;20071;-60
2021/07/04 02:33:21;;;;;;;8.02;5.28;;;16.20;99.90;;;;;;5066959;28;20060;-60
2021/07/04 02:35:58;;;;;;;6.95;5.35;;;16.00;99.90;;;;;;5079703;28;20451;-60
2021/07/04 02:38:24;;;;;;;6.88;5.10;;;16.00;99.90;;;;;;5074811;28;20484;-60
2021/07/04 02:40:51;;;;;;;7.70;5.43;;;16.00;99.90;;;;;;5080945;28;20501;-60
2021/07/04 02:43:20;;;;;;;6.75;5.20;;;15.70;99.90;;;;;;5074775;28;20029;-60
2021/07/04 02:45:47;;;;;;;7.10;5.18;;;15.70;99.90;;;;;;5077824;28;20476;-60
2021/07/04 02:48:13;;;;;;;8.43;5.28;;;15.60;99.90;;;;;;5080636;28;20029;-61
2021/07/04 02:50:40;;;;;;;6.28;5.25;;;15.60;99.90;;;;;;5066885;28;20053;-60
2021/07/04 02:53:06;;;;;;;8.90;5.20;;;15.70;99.90;;;;;;5072688;28;20067;-60
2021/07/04 02:55:32;;;;;;;10.07;4.93;;;15.70;99.90;;;;;;5079642;28;20036;-60
2021/07/04 02:57:58;;;;;;;13.30;5.35;;;15.70;99.90;;;;;;5081257;28;20028;-60
2021/07/04 03:00:26;;;;;;;7.13;5.00;;;15.70;99.90;;;;;;5094647;28;20028;-62
2021/07/04 03:02:53;;;;;;;8.32;5.32;;;15.70;99.90;;;;;;5064006;28;20074;-60
2021/07/04 03:05:19;;;;;;;7.47;5.50;;;15.70;99.90;;;;;;5070867;28;20081;-60
2021/07/04 03:07:46;;;;;;;9.45;5.57;;;15.80;99.90;;;;;;5077185;28;20047;-61
2021/07/04 03:10:15;;;;;;;8.35;6.00;;;15.90;99.90;;;;;;5078955;28;20111;-61
2021/07/04 03:12:41;;;;;;;8.27;5.38;;;16.10;99.90;;;;;;5077590;28;20483;-60
2021/07/04 03:15:09;;;;;;;7.15;5.15;;;16.10;99.90;;;;;;5070780;28;20036;-60
2021/07/04 03:17:36;;;;;;;8.02;4.68;;;16.10;99.90;;;;;;5070279;28;20123;-60
2021/07/04 03:20:04;;;;;;;6.75;4.75;;;16.20;99.90;;;;;;5069265;28;20068;-61
2021/07/04 03:22:30;;;;;;;6.50;5.10;;;16.20;99.90;;;;;;5042217;28;20369;-62
2021/07/04 03:24:57;;;;;;;6.80;5.10;;;16.20;99.90;;;;;;5073981;28;20028;-60
2021/07/04 03:27:23;;;;;;;6.68;4.97;;;16.20;99.90;;;;;;5080640;28;20418;-60
2021/07/04 03:29:49;;;;;;;6.15;4.93;;;16.30;99.90;;;;;;5078497;28;20460;-60
2021/07/04 03:32:15;;;;;;;7.70;5.38;;;16.30;99.90;;;;;;5036272;28;20040;-63
2021/07/04 03:34:41;;;;;;;7.72;5.90;;;16.20;99.90;;;;;;5050252;28;20041;-60
2021/07/04 03:37:06;;;;;;;8.05;5.30;;;16.20;99.90;;;;;;5048647;28;20044;-60
2021/07/04 03:39:32;;;;;;;8.60;5.82;;;16.20;99.90;;;;;;5051550;28;20119;-60
2021/07/04 03:41:58;;;;;;;9.82;6.50;;;16.20;99.90;;;;;;5083035;28;20028;-60
2021/07/04 03:44:24;;;;;;;8.18;6.53;;;16.20;99.90;;;;;;5072842;28;20042;-60
2021/07/04 03:46:49;;;;;;;9.85;6.07;;;16.30;99.90;;;;;;5066058;28;20090;-60
2021/07/04 03:49:15;;;;;;;13.85;6.57;;;16.30;99.90;;;;;;5072231;28;20040;-61
2021/07/04 03:51:41;;;;;;;14.82;6.72;;;16.40;99.90;;;;;;5078607;28;20048;-60
2021/07/04 03:54:07;;;;;;;10.82;5.53;;;16.40;99.90;;;;;;5076564;28;20085;-60
2021/07/04 03:56:33;;;;;;;8.35;6.20;;;16.60;99.90;;;;;;5080450;28;20115;-60
2021/07/04 03:58:59;;;;;;;8.05;6.32;;;16.60;99.90;;;;;;5080594;28;20032;-60
2021/07/04 04:01:25;;;;;;;9.07;6.45;;;16.70;99.90;;;;;;5077610;28;20082;-60
2021/07/04 04:03:51;;;;;;;7.05;6.15;;;16.80;99.90;;;;;;5074344;28;20036;-60
2021/07/04 04:06:17;;;;;;;7.95;5.75;;;16.80;99.90;;;;;;5072551;28;20036;-61
2021/07/04 04:08:45;;;;;;;7.82;6.20;;;17.00;99.90;;;;;;5072400;28;20033;-60
2021/07/04 04:11:12;;;;;;;7.57;6.28;;;17.00;99.90;;;;;;5078948;28;20122;-60
2021/07/04 04:13:39;;;;;;;7.55;6.38;;;17.00;99.90;;;;;;5084468;28;20029;-61
2021/07/04 04:16:06;;;;;;;7.97;5.75;;;17.00;99.90;;;;;;5071644;28;20038;-60
2021/07/04 04:18:37;;;;;;;7.63;6.35;;;17.10;99.90;;;;;;5080750;28;20067;-62
2021/07/04 04:21:07;;;;;;;10.77;6.28;;;17.20;99.90;;;;;;5080022;28;20081;-60
2021/07/04 04:23:33;;;;;;;7.78;6.15;;;17.30;99.90;;;;;;5060688;28;20417;-60
2021/07/04 04:26:00;;;;;;;7.55;6.05;;;17.40;99.90;;;;;;5062677;28;20094;-60
2021/07/04 04:28:26;;;;;;;6.30;5.53;;;17.50;99.90;;;;;;5061401;28;20045;-60
2021/07/04 04:30:53;;;;;;;10.07;6.07;;;17.60;99.90;;;;;;5036558;28;20484;-60
2021/07/04 04:33:19;;;;;;;9.02;7.00;;;17.70;99.90;;;;;;5055881;28;20041;-60
2021/07/04 04:35:45;;;;;;;9.48;8.05;;;17.70;99.90;;;;;;5055418;28;20049;-61
2021/07/04 04:38:11;;;;;;;9.88;7.57;;;17.80;99.90;;;;;;5051888;28;20512;-60
2021/07/04 04:40:36;;;;;;;11.15;7.65;;;17.90;99.90;;;;;;5051832;28;20024;-61
2021/07/04 04:43:02;;;;;;;9.40;7.78;;;18.00;99.90;;;;;;5029390;28;20033;-60
2021/07/04 04:45:29;;;;;;;9.38;7.43;;;18.20;99.90;;;;;;5053348;28;20021;-60
2021/07/04 04:47:54;;;;;;;9.50;7.38;;;18.20;99.90;;;;;;5017246;28;20041;-60
2021/07/04 04:50:20;;;;;;;7.65;6.85;;;18.30;99.90;;;;;;5051829;28;20051;-61
2021/07/04 04:52:46;;;;;;;9.10;6.82;;;18.50;99.90;;;;;;5002575;28;20041;-60
2021/07/04 04:55:12;;;;;;;6.95;6.20;;;18.60;99.90;;;;;;5072095;28;20039;-61
2021/07/04 04:57:38;;;;;;;8.23;6.70;;;18.60;99.90;;;;;;5070453;28;20456;-63
2021/07/04 05:00:09;;;;;;;9.25;6.60;;;18.80;99.90;;;;;;5068057;28;20028;-60
2021/07/04 05:02:35;;;;;;;8.37;6.77;;;19.00;99.90;;;;;;5071277;28;20491;-60
2021/07/04 05:05:02;;;;;;;9.75;6.45;;;19.00;99.90;;;;;;5072742;28;20326;-60
2021/07/04 05:07:28;;;;;;;10.57;6.80;;;19.10;99.90;;;;;;5059937;28;20395;-60
2021/07/04 05:09:54;;;;;;;10.35;6.20;;;19.20;99.90;;;;;;5056287;28;20726;-61
2021/07/04 05:12:19;;;;;;;6.78;5.18;;;19.30;99.90;;;;;;5077037;28;20059;-60
2021/07/04 05:14:45;;;;;;;7.90;6.13;;;19.40;99.90;;;;;;5062038;28;20464;-60
2021/07/04 05:17:11;;;;;;;7.90;6.30;;;19.40;99.90;;;;;;5067869;28;20488;-62
2021/07/04 05:19:37;;;;;;;8.35;5.50;;;19.60;99.90;;;;;;5062652;28;20033;-61
2021/07/04 05:22:03;;;;;;;7.20;5.63;;;19.80;99.90;;;;;;5074853;28;20025;-60
2021/07/04 05:24:29;;;;;;;7.93;6.35;;;20.00;99.90;;;;;;5079687;28;20033;-60
2021/07/04 05:26:55;;;;;;;8.50;5.80;;;20.20;99.90;;;;;;5081952;28;20398;-61
2021/07/04 05:29:21;;;;;;;7.88;5.43;;;20.30;99.90;;;;;;5071842;28;20032;-59
2021/07/04 05:31:47;;;;;;;5.90;5.00;;;20.40;99.90;;;;;;5073560;28;20039;-60
2021/07/04 05:34:12;;;;;;;5.80;5.20;;;20.60;99.90;;;;;;5073375;28;20119;-59
2021/07/04 05:36:38;;;;;;;7.47;4.88;;;20.80;99.90;;;;;;5076402;28;20120;-59
2021/07/04 05:39:04;;;;;;;6.57;5.30;;;20.90;99.90;;;;;;5068964;28;20025;-59
2021/07/04 05:41:30;;;;;;;6.13;4.80;;;21.00;99.90;;;;;;5073083;28;20555;-59
2021/07/04 05:43:56;;;;;;;6.38;4.70;;;21.00;99.90;;;;;;5043226;28;20112;-58
2021/07/04 05:46:22;;;;;;;7.03;4.72;;;21.20;99.90;;;;;;5070024;28;20459;-58
2021/07/04 05:48:49;;;;;;;8.48;5.10;;;21.40;99.90;;;;;;5078287;28;20064;-60
2021/07/04 05:51:15;;;;;;;7.57;5.32;;;21.60;99.90;;;;;;5071708;28;20132;-60
2021/07/04 05:53:41;;;;;;;7.63;4.65;;;21.60;99.90;;;;;;5069284;28;20107;-59
2021/07/04 05:56:07;;;;;;;6.35;4.72;;;21.90;99.90;;;;;;5071407;28;20061;-59
2021/07/04 05:58:33;;;;;;;7.70;5.20;;;22.10;99.90;;;;;;5068124;28;20067;-60
2021/07/04 06:00:59;;;;;;;6.85;4.95;;;22.30;99.90;;;;;;5061977;28;20447;-59
2021/07/04 06:03:25;;;;;;;11.40;5.68;;;22.50;99.90;;;;;;5066182;28;20033;-61
2021/07/04 06:05:50;;;;;;;9.57;5.20;;;22.70;99.90;;;;;;5073175;28;20427;-60
2021/07/04 06:08:16;;;;;;;7.63;5.85;;;22.80;99.90;;;;;;5083584;28;20043;-60
2021/07/04 06:10:45;;;;;;;8.23;5.82;;;23.00;99.90;;;;;;5077191;28;20487;-59
2021/07/04 06:13:10;;;;;;;9.07;5.25;;;23.10;99.90;;;;;;5070484;28;20025;-59
2021/07/04 06:15:36;;;;;;;7.50;5.53;;;23.30;99.90;;;;;;5084369;28;20028;-59
2021/07/04 06:18:02;;;;;;;7.07;5.07;;;23.30;99.90;;;;;;5073771;28;20035;-59
2021/07/04 06:20:28;;;;;;;6.43;5.00;;;23.30;99.90;;;;;;5074007;28;20033;-59
2021/07/04 06:22:55;;;;;;;8.43;5.40;;;23.60;99.90;;;;;;5054376;28;20041;-60
2021/07/04 06:25:22;;;;;;;6.95;4.75;;;23.70;99.90;;;;;;5074392;28;20040;-60
2021/07/04 06:27:49;;;;;;;6.25;4.70;;;23.90;99.90;;;;;;5068890;28;20028;-60
2021/07/04 06:30:15;;;;;;;7.93;4.85;;;24.10;99.90;;;;;;5066046;28;20037;-60
2021/07/04 06:32:42;;;;;;;6.55;4.30;;;24.00;99.90;;;;;;5068018;28;20039;-59
2021/07/04 06:35:09;;;;;;;5.78;3.88;;;;;;;;;;5045517;28;20411;-59
2021/07/04 06:37:35;;;;;;;4.90;4.28;;;24.30;99.90;;;;;;5065203;28;20445;-60
2021/07/04 06:40:02;;;;;;;5.78;4.57;;;24.60;99.90;;;;;;5046437;28;20035;-59
2021/07/04 06:42:28;;;;;;;5.40;4.47;;;24.70;99.90;;;;;;5072848;28;20048;-60
2021/07/04 06:44:53;;;;;;;6.30;3.80;;;24.80;99.90;;;;;;5074074;28;20040;-61
2021/07/04 06:47:20;;;;;;;4.38;3.67;;;;;;;;;;5073166;28;20108;-60
2021/07/04 06:49:46;;;;;;;5.15;3.45;;;;;;;;;;5073728;28;20090;-61
2021/07/04 06:52:12;;;;;;;5.32;3.53;;;;;;;;;;5062415;28;20553;-61
2021/07/04 06:54:38;;;;;;;4.10;3.70;;;;;;;;;;5079556;28;20068;-61
2021/07/04 06:59:49;;;;;;;5.60;3.50;;;25.60;97.80;;;;;;5078201;28;20507;-60
2021/07/04 07:02:16;;;;;;;6.72;3.45;;;25.60;97.90;;;;;;5074461;28;20060;-61
2021/07/04 07:04:42;;;;;;;6.57;3.70;;;25.60;98.30;;;;;;5061038;28;20081;-62
2021/07/04 07:07:07;;;;;;;6.53;3.95;;;25.40;97.70;;;;;;5052372;28;20033;-60
2021/07/04 07:09:33;;;;;;;6.18;4.07;;;25.40;97.80;;;;;;5077312;28;20246;-61
2021/07/04 07:11:59;;;;;;;5.63;4.35;;;25.70;98.80;;;;;;5057882;28;20044;-60
2021/07/04 07:14:25;;;;;;;5.93;4.40;;;;;;;;;;5069715;28;20028;-61
2021/07/04 07:16:51;;;;;;;5.00;3.88;;;;;;;;;;5083701;28;20142;-61
2021/07/04 07:19:17;;;;;;;5.88;3.83;;;26.20;94.50;;;;;;5058903;28;20041;-62
2021/07/04 07:21:43;;;;;;;6.43;4.22;;;26.40;95.40;;;;;;5077230;28;20111;-62
2021/07/04 07:24:10;;;;;;;5.78;3.80;;;;;;;;;;5069255;28;20017;-61
2021/07/04 07:26:36;;;;;;;6.43;3.78;;;26.60;94.60;;;;;;5069840;28;20028;-61
2021/07/04 07:29:02;;;;;;;4.50;3.08;;;;;;;;;;5064626;28;21201;-61
2021/07/04 07:31:28;;;;;;;7.38;4.60;;;26.70;93.80;;;;;;5067340;28;20427;-61
2021/07/04 07:33:54;;;;;;;9.27;3.90;;;;;;;;;;5072993;28;20037;-61
2021/07/04 07:36:20;;;;;;;6.95;4.32;;;26.90;94.00;;;;;;5072715;28;20123;-61
2021/07/04 07:38:46;;;;;;;4.40;3.50;;;26.60;92.70;;;;;;5077896;28;20111;-61
2021/07/04 07:41:11;;;;;;;8.95;3.72;;;26.80;92.30;;;;;;5071760;28;20025;-61
2021/07/04 07:43:37;;;;;;;4.70;3.30;;;26.70;93.00;;;;;;5031584;28;20024;-61
2021/07/04 07:46:03;;;;;;;5.63;3.45;;;26.80;91.90;;;;;;5069735;28;20409;-64
2021/07/04 07:48:28;;;;;;;7.05;3.67;;;26.90;90.60;;;;;;5063592;28;20040;-65
2021/07/04 07:50:54;;;;;;;7.60;3.70;;;27.10;87.00;;;;;;5077894;28;20182;-65
2021/07/04 07:53:20;;;;;;;4.72;3.70;;;27.20;87.40;;;;;;5038275;28;20040;-65
2021/07/04 07:55:46;;;;;;;3.67;3.25;;;27.50;88.30;;;;;;5060398;28;20498;-65
2021/07/04 07:58:11;;;;;;;3.58;3.15;;;27.40;87.30;;;;;;5074694;28;20041;-65
2021/07/04 08:00:37;;;;;;;4.63;3.38;;;27.40;89.90;;;;;;5078605;28;20107;-65
2021/07/04 08:03:03;;;;;;;4.72;4.07;;;27.50;89.20;;;;;;5069950;28;20037;-65
2021/07/04 08:05:29;;;;;;;6.03;3.47;;;;;;;;;;5079240;28;20047;-65
2021/07/04 08:07:55;;;;;;;5.63;4.00;;;27.60;86.70;;;;;;5080776;28;20032;-65
2021/07/04 08:10:21;;;;;;;6.05;3.95;;;27.70;89.20;;;;;;5081413;28;20055;-65
2021/07/04 08:12:47;;;;;;;4.93;3.90;;;27.80;87.40;;;;;;5081187;28;20047;-64
2021/07/04 08:15:13;;;;;;;8.68;4.28;;;27.90;89.30;;;;;;5076836;28;20091;-65
2021/07/04 08:17:39;;;;;;;7.30;4.00;;;28.30;89.60;;;;;;5076387;28;20032;-65
2021/07/04 08:20:06;;;;;;;8.90;4.68;;;;;;;;;;5079701;28;20467;-65
2021/07/04 08:22:32;;;;;;;4.78;3.72;;;28.80;87.10;;;;;;5072060;28;20031;-65
2021/07/04 08:24:58;;;;;;;5.22;4.10;;;29.00;88.90;;;;;;5074876;28;20045;-65
2021/07/04 08:27:24;;;;;;;6.03;3.42;;;28.70;82.30;;;;;;5074988;28;20028;-65
2021/07/04 08:29:50;;;;;;;6.68;3.78;;;28.50;81.50;;;;;;5080093;28;20102;-65
2021/07/04 08:32:15;;;;;;;4.15;3.75;;;28.20;84.10;;;;;;5077037;28;20055;-65
2021/07/04 08:34:41;;;;;;;6.45;3.72;;;28.40;81.70;;;;;;5043751;28;20044;-65
2021/07/04 08:37:07;;;;;;;3.92;3.40;;;28.50;81.20;;;;;;5081834;28;20046;-65
2021/07/04 08:39:33;;;;;;;4.70;3.58;;;;;;;;;;5074598;28;20040;-65
2021/07/04 08:41:59;;;;;;;7.28;3.97;;;29.00;82.50;;;;;;5072391;28;20048;-65
2021/07/04 08:44:25;;;;;;;5.90;3.70;;;;;;;;;;5075273;28;20025;-66
2021/07/04 08:46:51;;;;;;;13.88;4.43;;;30.50;79.70;;;;;;5079382;28;20081;-66
2021/07/04 08:49:17;;;;;;;3.30;2.95;;;31.90;75.80;;;;;;5074093;28;20037;-65
2021/07/04 08:51:43;;;;;;;7.97;3.70;;;32.50;73.00;;;;;;5074078;28;20040;-66
2021/07/04 08:54:10;;;;;;;4.25;3.30;;;32.80;70.80;;;;;;5081074;28;20039;-66
2021/07/04 08:56:36;;;;;;;5.22;4.03;;;34.00;68.60;;;;;;5084571;28;20027;-66
2021/07/04 08:59:03;;;;;;;4.05;3.35;;;35.50;68.30;;;;;;5079407;28;20039;-65
2021/07/04 09:01:30;;;;;;;4.35;3.10;;;36.90;63.10;;;;;;5078772;28;20061;-65
2021/07/04 09:04:13;;;;;;;3.90;3.05;;;38.80;62.90;;;;;;5080127;28;20036;-66
2021/07/04 09:06:41;;;;;;;5.40;3.35;;;38.70;56.50;;;;;;5070083;28;20051;-65
2021/07/04 09:09:19;;;;;;;6.28;3.40;;;38.10;58.20;;;;;;5042929;28;20055;-66
2021/07/04 09:11:51;;;;;;;9.85;3.55;;;38.40;58.30;;;;;;5081833;28;20071;-66
2021/07/04 09:14:17;;;;;;;4.03;3.63;;;38.00;56.80;;;;;;5077637;28;20032;-66
2021/07/04 09:16:48;;;;;;;4.20;3.47;;;37.80;57.30;;;;;;5073759;28;20035;-66
2021/07/04 09:19:16;;;;;;;9.18;3.60;;;37.00;57.30;;;;;;5072733;28;20036;-66
2021/07/04 09:21:42;;;;;;;7.28;4.55;;;36.20;57.70;;;;;;5078928;28;20089;-66
2021/07/04 09:24:24;;;;;;;7.38;3.40;;;37.30;58.60;;;;;;5087394;28;20027;-66
2021/07/04 09:26:51;;;;;;;4.63;3.80;;;38.40;57.60;;;;;;5063080;28;20484;-65
2021/07/04 09:29:16;;;;;;;5.20;3.13;;;39.70;55.50;;;;;;5051892;28;20114;-66
2021/07/04 09:31:43;;;;;;;5.78;2.75;;;39.90;52.60;;;;;;5057744;28;20507;-66
2021/07/04 09:34:11;;;;;;;6.03;2.88;;;41.00;52.40;;;;;;5046610;28;20033;-66
2021/07/04 09:36:38;;;;;;;3.83;3.20;;;41.90;51.30;;;;;;5070664;28;20119;-65
2021/07/04 09:39:21;;;;;;;5.18;3.58;;;41.60;51.00;;;;;;5067803;28;20028;-66
2021/07/04 09:42:10;;;;;;;7.25;3.38;;;40.10;50.60;;;;;;5070068;28;20028;-65
2021/07/04 09:44:38;;;;;;;3.20;2.90;;;37.50;53.40;;;;;;5051428;28;20415;-64
2021/07/04 09:47:22;;;;;;;4.75;3.38;;;36.40;52.90;;;;;;5070833;28;20584;-63
2021/07/04 09:49:48;;;;;;;3.30;3.00;;;35.20;53.10;;;;;;5069364;28;20399;-66
2021/07/04 09:52:15;;;;;;;3.72;2.83;;;39.10;52.20;;;;;;5074014;28;20491;-65
2021/07/04 09:54:59;;;;;;;4.90;3.10;;;40.90;51.20;;;;;;5082161;28;20448;-66
2021/07/04 09:57:27;;;;;;;5.65;3.10;;;42.00;50.30;;;;;;5067902;28;20063;-66
2021/07/04 10:00:16;;;;;;;5.68;3.17;;;42.30;50.00;;;;;;5079552;28;20098;-65
2021/07/04 10:02:42;;;;;;;5.80;3.22;;;43.50;47.80;;;;;;5074654;28;20058;-66
2021/07/04 10:05:12;;;;;;;6.10;4.30;;;44.40;47.40;;;;;;5074837;28;20096;-66
2021/07/04 10:07:38;;;;;;;3.75;3.13;;;46.10;44.60;;;;;;5072596;28;20147;-65
2021/07/04 10:10:04;;;;;;;3.78;2.70;;;46.30;44.40;;;;;;5078260;28;20121;-66
2021/07/04 10:12:30;;;;;;;4.82;3.00;;;47.10;43.10;;;;;;5058415;28;20206;-66
2021/07/04 10:14:56;;;;;;;3.60;2.67;;;47.60;43.20;;;;;;5078968;28;20107;-66
2021/07/04 10:17:27;;;;;;;5.55;2.70;;;48.00;41.90;;;;;;5082796;28;20494;-68
2021/07/04 10:19:54;;;;;;;3.65;2.80;;;45.90;42.10;;;;;;5070516;28;20111;-63
2021/07/04 10:22:22;;;;;;;5.15;2.67;;;43.30;44.10;;;;;;5066675;28;20032;-64
2021/07/04 10:24:49;;;;;;;4.10;3.00;;;43.80;44.10;;;;;;5075828;28;20060;-64
2021/07/04 10:27:16;;;;;;;5.38;3.05;;;44.10;43.90;;;;;;5062914;28;20033;-65
2021/07/04 10:29:43;;;;;;;3.45;3.00;;;42.70;43.90;;;;;;5064985;28;20031;-63
2021/07/04 10:32:13;;;;;;;3.05;2.75;;;42.90;44.00;;;;;;5070090;28;20033;-62
2021/07/04 10:34:44;;;;;;;4.70;3.08;;;43.30;44.30;;;;;;5077564;28;20060;-62
2021/07/04 10:37:11;;;;;;;3.60;2.22;;;44.30;44.30;;;;;;5079690;28;20501;-63
2021/07/04 10:39:37;;;;;;;4.03;2.70;;;43.40;43.80;;;;;;5065966;28;20029;-62
2021/07/04 10:42:11;;;;;;;4.28;2.55;;;43.50;44.50;;;;;;5051087;28;20044;-63
2021/07/04 10:44:48;;;;;;;3.20;2.42;;;44.30;45.20;;;;;;5060532;28;20079;-64
2021/07/04 10:47:16;;;;;;;5.60;3.15;;;44.40;42.40;;;;;;5059094;28;20068;-63
2021/07/04 10:49:50;;;;;;;215.88;46.60;;;46.20;42.80;;;;;;5064223;28;20040;-63
2021/07/04 10:52:36;;;;;;;202.82;40.03;;;48.70;43.10;;;;;;5073017;28;20036;-63
2021/07/04 10:55:08;;;;;;;59.97;12.43;;;48.20;42.10;;;;;;5071008;28;20578;-63
2021/07/04 10:57:54;;;;;;;5.38;2.83;;;47.70;40.90;;;;;;5080397;28;20043;-63
2021/07/04 11:00:27;;;;;;;5.75;3.58;;;48.50;40.30;;;;;;5100756;28;20028;-64
2021/07/04 11:02:57;;;;;;;21.08;6.88;;;50.50;40.00;;;;;;5099691;28;20036;-64
2021/07/04 11:05:31;;;;;;;12.23;5.13;;;51.20;39.80;;;;;;5098559;28;20762;-63
2021/07/04 11:07:57;;;;;;;12.77;4.47;;;52.40;39.30;;;;;;5095387;28;20046;-64
2021/07/04 11:10:26;;;;;;;3.70;2.78;;;50.70;38.00;;;;;;5088798;28;20413;-63
2021/07/04 11:13:09;;;;;;;4.85;2.83;;;52.40;38.90;;;;;;5096693;28;20060;-64
2021/07/04 11:15:36;;;;;;;6.57;4.57;;;51.50;38.50;;;;;;5095465;28;20032;-63
2021/07/04 11:18:03;;;;;;;3.63;2.50;;;52.20;39.10;;;;;;5102974;28;20036;-63
2021/07/04 11:20:38;;;;;;;3.80;2.88;;;52.00;39.60;;;;;;5095274;28;20032;-63
2021/07/04 11:23:16;;;;;;;3.63;2.67;;;51.60;38.40;;;;;;5078306;28;20109;-63
2021/07/04 11:25:43;;;;;;;3.55;2.80;;;48.50;38.30;;;;;;5094545;28;20100;-64
2021/07/04 11:28:15;;;;;;;5.30;3.10;;;47.30;40.20;;;;;;5076284;28;20051;-63
2021/07/04 11:30:45;;;;;;;5.15;2.90;;;45.50;40.70;;;;;;5073168;28;20055;-62
2021/07/04 11:33:35;;;;;;;4.05;3.03;;;43.30;43.20;;;;;;5074944;28;20422;-64
2021/07/04 11:36:03;;;;;;;3.78;2.83;;;41.50;43.70;;;;;;5076834;28;20512;-63
2021/07/04 11:38:32;;;;;;;5.07;2.97;;;39.50;45.50;;;;;;5048839;28;20124;-63
2021/07/04 11:40:58;;;;;;;5.97;2.80;;;39.00;46.10;;;;;;5077231;28;20045;-63
2021/07/04 11:43:26;;;;;;;7.43;3.97;;;37.50;47.40;;;;;;5077036;28;20163;-64
2021/07/04 11:45:55;;;;;;;4.80;2.72;;;39.20;47.20;;;;;;5070751;28;20060;-63
2021/07/04 11:48:45;;;;;;;4.05;3.03;;;41.30;47.10;;;;;;5074823;28;20484;-64
2021/07/04 11:51:30;;;;;;;5.50;3.42;;;40.40;45.60;;;;;;5046869;28;20061;-63
2021/07/04 11:54:05;;;;;;;3.78;2.88;;;39.10;46.20;;;;;;5046475;28;20067;-64
2021/07/04 11:56:31;;;;;;;4.35;3.00;;;38.40;47.40;;;;;;5018171;28;20094;-64
2021/07/04 11:59:07;;;;;;;6.05;3.13;;;36.00;48.90;;;;;;5044396;28;20057;-64
2021/07/04 12:01:40;;;;;;;4.38;2.85;;;36.00;49.50;;;;;;5037965;28;20487;-64
2021/07/04 12:04:06;;;;;;;6.97;3.13;;;36.80;49.30;;;;;;4989812;28;20039;-65
2021/07/04 12:06:31;;;;;;;5.47;3.08;;;35.30;50.40;;;;;;4960423;28;20030;-63
2021/07/04 12:09:00;;;;;;;6.63;3.22;;;35.70;50.50;;;;;;4958457;28;20552;-63
2021/07/04 12:11:52;;;;;;;6.07;3.25;;;36.20;51.50;;;;;;4985717;28;20144;-63
2021/07/04 12:14:28;;;;;;;;;;;37.50;49.40;;;;;;4991178;28;20045;-64
2021/07/04 12:16:56;;;;;;;4.32;3.13;;;36.00;49.00;;;;;;4990713;28;20436;-62
2021/07/04 12:19:34;;;;;;;3.03;2.70;;;34.50;50.10;;;;;;4960517;28;20046;-63
2021/07/04 12:22:02;;;;;;;3.55;2.40;;;34.50;50.50;;;;;;4984103;28;20101;-64
2021/07/04 12:24:46;;;;;;;3.80;3.30;;;36.20;51.00;;;;;;4944364;28;20042;-63
2021/07/04 12:27:12;;;;;;;3.83;2.97;;;39.50;48.10;;;;;;4991005;28;20126;-64
2021/07/04 12:29:59;;;;;;;4.03;2.72;;;43.60;46.40;;;;;;5031014;28;20140;-64
2021/07/04 12:32:25;;;;;;;4.85;2.40;;;47.50;42.90;;;;;;5027481;28;20602;-64
2021/07/04 12:34:51;;;;;;;2.95;2.38;;;47.20;40.90;;;;;;5048540;28;20041;-63
2021/07/04 12:37:18;;;;;;;7.93;2.97;;;44.90;41.60;;;;;;5083158;28;20025;-64
2021/07/04 12:39:46;;;;;;;3.30;2.65;;;43.00;43.30;;;;;;5078339;28;21368;-64
2021/07/04 12:42:25;;;;;;;2.95;2.75;;;43.60;42.90;;;;;;5078104;28;20058;-64
2021/07/04 12:45:07;;;;;;;3.10;2.70;;;44.40;42.50;;;;;;5068969;28;20024;-64
2021/07/04 12:47:33;;;;;;;3.05;2.67;;;47.10;40.80;;;;;;5023773;28;20033;-64
2021/07/04 12:50:01;;;;;;;3.40;2.80;;;40.30;42.00;;;;;;5057846;28;20032;-64
2021/07/04 12:52:27;;;;;;;6.53;2.80;;;37.40;46.20;;;;;;5033022;28;20076;-63
2021/07/04 12:54:52;;;;;;;5.55;2.95;;;35.50;49.70;;;;;;5058340;28;20121;-64
2021/07/04 12:57:30;;;;;;;4.55;3.20;;;35.40;50.70;;;;;;5052530;28;20423;-64